Time;durP1;ratioP1;P1;durP2;ratioP2;P2;SDS_P1;SDS_P2;PMS_P1;PMS_P2;Temp;Humidity;BMP_temperature;BMP_pressure;BME280_temperature;BME280_humidity;BME280_pressure;Samples;Min_cycle;Max_cycle;Signal;HPM_P1;HPM_P2
2022/09/25 00:01:07;;;;;;;5.88;1.70;;;10.50;99.90;;;;;;4990112;28;20050;-69
2022/09/25 00:03:32;;;;;;;4.70;1.52;;;10.50;99.90;;;;;;5002134;28;20034;-70
2022/09/25 00:06:23;;;;;;;4.00;1.33;;;10.50;99.90;;;;;;5008832;28;20044;-71
2022/09/25 00:08:49;;;;;;;4.05;1.20;;;10.50;99.90;;;;;;5003736;28;20042;-76
2022/09/25 00:11:19;;;;;;;5.85;1.27;;;10.40;99.90;;;;;;4997540;28;20042;-70
2022/09/25 00:13:45;;;;;;;6.03;1.77;;;10.40;99.90;;;;;;4991315;28;20113;-71
2022/09/25 00:16:14;;;;;;;4.22;1.85;;;10.50;99.90;;;;;;5007024;28;20034;-70
2022/09/25 00:21:28;;;;;;;3.42;1.73;;;10.40;99.90;;;;;;5000270;28;20438;-69
2022/09/25 00:23:54;;;;;;;7.03;1.38;;;10.40;99.90;;;;;;4999273;28;20025;-70
2022/09/25 00:26:19;;;;;;;3.50;1.17;;;10.40;99.90;;;;;;5008830;28;20133;-70
2022/09/25 00:28:45;;;;;;;5.28;1.38;;;10.40;99.90;;;;;;5010962;28;20041;-71
2022/09/25 00:31:18;;;;;;;3.55;1.30;;;10.30;99.90;;;;;;5017747;28;20070;-71
2022/09/25 00:33:44;;;;;;;4.55;1.60;;;10.40;99.90;;;;;;4952734;28;20422;-70
2022/09/25 00:36:10;;;;;;;3.20;1.00;;;10.30;99.90;;;;;;4981960;28;20046;-70
2022/09/25 00:38:37;;;;;;;4.18;1.27;;;10.30;99.90;;;;;;4990160;28;20034;-69
2022/09/25 00:41:05;;;;;;;3.30;1.27;;;10.30;99.90;;;;;;4990576;28;20042;-70
2022/09/25 00:43:47;;;;;;;6.30;1.35;;;10.30;99.90;;;;;;4991237;28;20037;-72
2022/09/25 00:46:18;;;;;;;3.53;1.50;;;10.20;99.90;;;;;;4951931;28;20055;-70
2022/09/25 00:49:04;;;;;;;2.38;1.08;;;10.20;99.90;;;;;;4951157;28;20035;-71
2022/09/25 00:51:40;;;;;;;3.05;1.30;;;10.20;99.90;;;;;;4975431;28;20133;-70
2022/09/25 00:54:13;;;;;;;5.43;1.10;;;10.20;99.90;;;;;;4990258;28;20376;-70
2022/09/25 00:56:42;;;;;;;5.32;1.10;;;10.20;99.90;;;;;;5025763;28;20034;-71
2022/09/25 00:59:12;;;;;;;4.45;1.20;;;10.10;99.90;;;;;;5006088;28;20303;-72
2022/09/25 01:01:38;;;;;;;6.78;1.10;;;10.10;99.90;;;;;;5022250;28;20046;-71
2022/09/25 01:04:04;;;;;;;4.72;1.27;;;10.10;99.90;;;;;;5024583;28;20469;-70
2022/09/25 01:06:31;;;;;;;5.28;1.52;;;10.10;99.90;;;;;;5002265;28;20041;-71
2022/09/25 01:08:58;;;;;;;2.67;1.30;;;10.10;99.90;;;;;;5003204;28;20596;-70
2022/09/25 01:11:24;;;;;;;10.00;1.88;;;10.00;99.90;;;;;;4990626;28;20120;-71
2022/09/25 01:13:54;;;;;;;3.40;1.05;;;10.00;99.90;;;;;;5024750;28;20715;-70
2022/09/25 01:16:28;;;;;;;6.50;1.63;;;10.00;99.90;;;;;;5009901;28;20033;-71
2022/09/25 01:19:28;;;;;;;4.28;1.30;;;10.00;99.90;;;;;;5009775;28;20042;-71
2022/09/25 01:22:20;;;;;;;4.78;1.40;;;9.90;99.90;;;;;;4998306;28;20030;-69
2022/09/25 01:24:56;;;;;;;5.85;1.40;;;9.90;99.90;;;;;;5021939;28;20034;-70
2022/09/25 01:27:34;;;;;;;8.82;1.73;;;9.80;99.90;;;;;;4995199;28;20041;-70
2022/09/25 01:30:00;;;;;;;8.32;1.92;;;9.80;99.90;;;;;;4969400;28;20037;-70
2022/09/25 01:32:44;;;;;;;4.68;1.40;;;9.80;99.90;;;;;;4967970;28;20046;-71
2022/09/25 01:35:30;;;;;;;3.47;1.13;;;9.80;99.90;;;;;;4970079;28;20043;-70
2022/09/25 01:38:05;;;;;;;5.68;1.20;;;9.80;99.90;;;;;;4991763;28;20065;-71
2022/09/25 01:40:42;;;;;;;4.85;1.33;;;9.80;99.90;;;;;;5000589;28;20037;-70
2022/09/25 01:43:21;;;;;;;5.35;1.38;;;9.70;99.90;;;;;;4970203;28;20125;-70
2022/09/25 01:45:54;;;;;;;4.90;1.63;;;9.70;99.90;;;;;;4976564;28;20034;-70
2022/09/25 01:48:25;;;;;;;4.68;1.30;;;9.70;99.90;;;;;;4997364;28;20058;-69
2022/09/25 01:50:59;;;;;;;4.88;2.08;;;9.70;99.90;;;;;;5003408;28;20054;-70
2022/09/25 01:53:33;;;;;;;4.18;1.17;;;9.70;99.90;;;;;;5005734;28;20037;-70
2022/09/25 01:56:21;;;;;;;3.13;1.10;;;9.70;99.90;;;;;;4989362;28;20034;-69
2022/09/25 01:58:54;;;;;;;4.80;1.25;;;9.70;99.90;;;;;;4981836;28;20368;-69
2022/09/25 02:01:28;;;;;;;3.30;1.05;;;9.70;99.90;;;;;;4975857;28;20046;-70
2022/09/25 02:04:10;;;;;;;8.43;1.70;;;9.70;99.90;;;;;;4962831;28;20042;-70
2022/09/25 02:06:39;;;;;;;1.63;0.85;;;9.60;99.90;;;;;;5009615;28;20556;-72
2022/09/25 02:09:33;;;;;;;6.00;1.23;;;9.60;99.90;;;;;;4989512;28;20038;-69
2022/09/25 02:12:24;;;;;;;11.43;1.83;;;9.60;99.90;;;;;;5023753;28;20046;-70
2022/09/25 02:14:51;;;;;;;;;;;9.60;99.90;;;;;;4969694;28;20046;-71
2022/09/25 02:22:57;;;;;;;11.57;1.45;;;9.50;99.90;;;;;;5008520;28;20441;-70
2022/09/25 02:25:34;;;;;;;2.17;1.02;;;9.50;99.90;;;;;;5007728;28;20029;-71
2022/09/25 02:28:00;;;;;;;4.15;1.33;;;9.50;99.90;;;;;;5007194;28;20037;-71
2022/09/25 02:30:26;;;;;;;5.90;1.50;;;9.50;99.90;;;;;;5004676;28;20034;-70
2022/09/25 02:32:52;;;;;;;3.28;1.35;;;9.50;99.90;;;;;;4989045;28;20018;-70
2022/09/25 02:35:18;;;;;;;3.60;1.13;;;9.50;99.90;;;;;;4994894;28;20022;-70
2022/09/25 02:37:44;;;;;;;5.90;1.20;;;9.50;99.90;;;;;;5008591;28;20029;-70
2022/09/25 02:40:10;;;;;;;5.20;1.60;;;9.50;99.90;;;;;;5008455;28;20061;-71
2022/09/25 02:43:06;;;;;;;5.40;1.13;;;9.50;99.90;;;;;;5004575;28;20033;-70
2022/09/25 02:45:51;;;;;;;7.15;1.63;;;9.50;99.90;;;;;;5000440;28;20034;-70
2022/09/25 02:48:23;;;;;;;3.58;1.50;;;9.50;99.90;;;;;;5005390;28;20121;-70
2022/09/25 02:51:01;;;;;;;4.70;1.23;;;9.50;99.90;;;;;;5020541;28;20038;-72
2022/09/25 02:53:45;;;;;;;4.15;1.55;;;9.50;99.90;;;;;;5003951;28;20045;-71
2022/09/25 02:56:19;;;;;;;2.65;1.02;;;9.50;99.90;;;;;;5009085;28;20026;-72
2022/09/25 02:58:58;;;;;;;5.43;1.02;;;9.50;99.90;;;;;;4992711;28;20030;-70
2022/09/25 03:01:27;;;;;;;3.00;1.50;;;9.40;99.90;;;;;;4995189;28;20053;-70
2022/09/25 03:03:56;;;;;;;6.68;1.48;;;9.40;99.90;;;;;;4995116;28;20460;-71
2022/09/25 03:06:23;;;;;;;4.35;1.00;;;9.40;99.90;;;;;;4992188;28;20515;-70
2022/09/25 03:08:53;;;;;;;6.88;1.75;;;9.40;99.90;;;;;;4992369;28;20670;-70
2022/09/25 03:11:20;;;;;;;5.82;1.30;;;9.40;99.90;;;;;;4990892;28;20145;-69
2022/09/25 03:13:57;;;;;;;3.00;0.90;;;9.40;99.90;;;;;;4990708;28;20085;-70
2022/09/25 03:16:45;;;;;;;9.70;2.25;;;9.40;99.90;;;;;;5007037;28;20035;-71
2022/09/25 03:19:11;;;;;;;5.45;2.35;;;9.30;99.90;;;;;;4999047;28;20066;-72
2022/09/25 03:21:37;;;;;;;3.78;1.60;;;9.30;99.90;;;;;;5001608;28;20072;-72
2022/09/25 03:24:02;;;;;;;5.22;1.70;;;9.30;99.90;;;;;;4998587;28;20121;-73
2022/09/25 03:26:29;;;;;;;9.88;2.13;;;9.30;99.90;;;;;;5007149;28;20037;-71
2022/09/25 03:28:55;;;;;;;4.95;1.50;;;9.30;99.90;;;;;;4997706;28;20041;-73
2022/09/25 03:31:20;;;;;;;17.27;2.10;;;9.30;99.90;;;;;;5003709;28;20046;-71
2022/09/25 03:33:46;;;;;;;4.90;2.10;;;9.30;99.90;;;;;;5003516;28;20030;-72
2022/09/25 03:36:17;;;;;;;7.30;1.40;;;9.40;99.90;;;;;;5024227;28;20030;-71
2022/09/25 03:38:45;;;;;;;3.70;1.50;;;9.30;99.90;;;;;;4999926;28;20041;-72
2022/09/25 03:41:12;;;;;;;6.97;1.73;;;9.30;99.90;;;;;;4998468;28;20034;-71
2022/09/25 03:43:40;;;;;;;5.78;1.80;;;9.30;99.90;;;;;;4999985;28;20035;-71
2022/09/25 03:46:08;;;;;;;3.60;1.80;;;9.30;99.90;;;;;;5000144;28;20107;-71
2022/09/25 03:48:34;;;;;;;5.57;1.60;;;9.30;99.90;;;;;;5022981;28;20030;-71
2022/09/25 03:51:00;;;;;;;6.13;1.60;;;9.30;99.90;;;;;;5001831;28;20072;-71
2022/09/25 03:53:27;;;;;;;8.07;2.15;;;9.40;99.90;;;;;;5002633;28;20534;-72
2022/09/25 03:55:53;;;;;;;5.22;1.52;;;9.40;99.90;;;;;;5002643;28;20088;-73
2022/09/25 03:58:19;;;;;;;3.95;1.50;;;9.40;99.90;;;;;;4996063;28;20042;-71
2022/09/25 04:00:45;;;;;;;2.88;1.52;;;9.40;99.90;;;;;;5000373;28;20049;-70
2022/09/25 04:03:12;;;;;;;3.38;1.67;;;9.50;99.90;;;;;;4997020;28;20025;-71
2022/09/25 04:05:38;;;;;;;5.25;1.80;;;9.40;99.90;;;;;;4994660;28;20074;-71
2022/09/25 04:08:04;;;;;;;4.20;1.90;;;9.50;99.90;;;;;;4998387;28;20070;-71
2022/09/25 04:10:32;;;;;;;6.18;1.48;;;9.50;99.90;;;;;;5022444;28;20038;-70
2022/09/25 04:12:57;;;;;;;7.05;1.50;;;9.50;99.90;;;;;;4996467;28;20035;-70
2022/09/25 04:15:23;;;;;;;8.35;2.97;;;9.50;99.90;;;;;;4998754;28;20046;-70
2022/09/25 04:17:52;;;;;;;3.25;1.30;;;9.60;99.90;;;;;;5001698;28;20042;-71
2022/09/25 04:20:18;;;;;;;5.13;1.92;;;9.60;99.90;;;;;;5000605;28;20042;-71
2022/09/25 04:22:44;;;;;;;4.32;1.25;;;9.70;99.90;;;;;;5000734;28;20040;-71
2022/09/25 04:25:10;;;;;;;5.47;2.25;;;9.70;99.90;;;;;;4995884;28;20465;-71
2022/09/25 04:27:36;;;;;;;4.22;1.45;;;9.70;99.90;;;;;;4999765;28;20038;-71
2022/09/25 04:30:04;;;;;;;4.45;1.70;;;9.70;99.90;;;;;;4998780;28;20041;-71
2022/09/25 04:35:13;;;;;;;2.03;1.10;;;9.70;99.90;;;;;;5002393;28;20166;-71
2022/09/25 04:37:39;;;;;;;2.92;1.38;;;9.60;99.90;;;;;;4996406;28;20494;-70
2022/09/25 04:40:05;;;;;;;5.00;1.75;;;9.60;99.90;;;;;;5001147;28;20038;-71
2022/09/25 04:42:31;;;;;;;3.67;1.27;;;9.60;99.90;;;;;;4999600;28;20026;-72
2022/09/25 04:44:57;;;;;;;7.75;1.88;;;9.50;99.90;;;;;;4996562;28;20384;-71
2022/09/25 04:47:24;;;;;;;5.72;1.42;;;9.50;99.90;;;;;;4996779;28;20033;-70
2022/09/25 04:49:51;;;;;;;3.17;1.45;;;9.50;99.90;;;;;;5001418;28;20033;-72
2022/09/25 04:52:18;;;;;;;4.60;1.80;;;9.40;99.90;;;;;;4999858;28;20018;-71
2022/09/25 04:54:45;;;;;;;4.00;1.75;;;9.40;99.90;;;;;;4999707;28;20031;-71
2022/09/25 04:57:19;;;;;;;5.07;1.63;;;9.40;99.90;;;;;;4995434;28;20034;-71
2022/09/25 04:59:44;;;;;;;3.50;1.33;;;9.30;99.90;;;;;;4996058;28;20031;-71
2022/09/25 05:02:11;;;;;;;3.75;1.20;;;9.30;99.90;;;;;;4998788;28;20032;-71
2022/09/25 05:04:37;;;;;;;4.05;1.10;;;9.30;99.90;;;;;;4993737;28;20446;-72
2022/09/25 05:07:02;;;;;;;4.68;1.48;;;9.30;99.90;;;;;;4997489;28;20034;-71
2022/09/25 05:09:29;;;;;;;3.47;1.15;;;9.20;99.90;;;;;;5021467;28;20190;-72
2022/09/25 05:11:55;;;;;;;2.97;1.05;;;9.20;99.90;;;;;;4999358;28;20026;-71
2022/09/25 05:14:21;;;;;;;3.67;1.30;;;9.20;99.90;;;;;;4999338;28;20092;-70
2022/09/25 05:16:47;;;;;;;3.85;1.25;;;9.20;99.90;;;;;;4998012;28;20510;-70
2022/09/25 05:19:13;;;;;;;3.95;1.45;;;9.20;99.90;;;;;;5020545;28;20046;-70
2022/09/25 05:21:39;;;;;;;5.82;1.10;;;9.10;99.90;;;;;;4997432;28;20385;-72
2022/09/25 05:24:07;;;;;;;4.88;1.30;;;9.10;99.90;;;;;;5022175;28;20144;-71
2022/09/25 05:26:33;;;;;;;2.92;1.27;;;9.10;99.90;;;;;;5002455;28;20042;-71
2022/09/25 05:28:59;;;;;;;2.58;1.02;;;9.10;99.90;;;;;;4999782;28;20494;-70
2022/09/25 05:31:25;;;;;;;4.47;1.42;;;9.10;99.90;;;;;;4997428;28;20034;-71
2022/09/25 05:33:51;;;;;;;2.92;1.20;;;9.10;99.90;;;;;;4998356;28;20038;-71
2022/09/25 05:36:17;;;;;;;4.93;1.40;;;9.00;99.90;;;;;;5000744;28;20436;-71
2022/09/25 05:38:43;;;;;;;3.63;1.30;;;9.00;99.90;;;;;;4998232;28;20040;-71
2022/09/25 05:41:09;;;;;;;3.83;1.15;;;9.00;99.90;;;;;;5023181;28;20046;-71
2022/09/25 05:43:43;;;;;;;2.63;1.30;;;9.00;99.90;;;;;;5004844;28;20030;-71
2022/09/25 05:46:09;;;;;;;5.07;1.58;;;9.00;99.90;;;;;;4994590;28;20050;-71
2022/09/25 05:48:36;;;;;;;5.30;1.20;;;9.00;99.90;;;;;;4997531;28;20038;-71
2022/09/25 05:51:01;;;;;;;4.18;1.30;;;9.00;99.90;;;;;;4997740;28;20502;-71
2022/09/25 05:53:28;;;;;;;3.58;1.08;;;9.00;99.90;;;;;;4995406;28;20034;-72
2022/09/25 05:55:57;;;;;;;3.80;1.30;;;9.00;99.90;;;;;;5000054;28;20045;-72
2022/09/25 05:58:23;;;;;;;3.58;1.30;;;9.00;99.90;;;;;;5020532;28;20038;-71
2022/09/25 06:00:49;;;;;;;8.60;1.42;;;8.90;99.90;;;;;;5023535;28;20518;-71
2022/09/25 06:03:16;;;;;;;3.92;1.27;;;8.90;99.90;;;;;;4995848;28;20038;-71
2022/09/25 06:05:43;;;;;;;6.40;1.20;;;8.90;99.90;;;;;;5022855;28;20117;-71
2022/09/25 06:08:08;;;;;;;6.03;1.27;;;9.00;99.90;;;;;;4996249;28;20038;-71
2022/09/25 06:10:34;;;;;;;6.25;1.50;;;8.90;99.90;;;;;;5001090;28;20038;-71
2022/09/25 06:13:02;;;;;;;3.30;1.13;;;9.00;99.90;;;;;;4997706;28;20035;-71
2022/09/25 06:15:34;;;;;;;4.40;1.38;;;9.00;99.90;;;;;;4995923;28;20035;-71
2022/09/25 06:18:00;;;;;;;3.67;1.42;;;9.00;99.90;;;;;;5000106;28;20038;-71
2022/09/25 06:20:26;;;;;;;5.75;1.55;;;9.00;99.90;;;;;;4999472;28;20049;-70
2022/09/25 06:22:55;;;;;;;3.03;1.75;;;9.10;99.90;;;;;;5023004;28;20026;-71
2022/09/25 06:25:26;;;;;;;3.40;1.15;;;9.10;99.90;;;;;;5003308;28;20067;-71
2022/09/25 06:27:55;;;;;;;3.42;1.33;;;9.10;99.90;;;;;;4999683;28;20034;-71
2022/09/25 06:30:23;;;;;;;9.95;1.73;;;9.10;99.90;;;;;;5001506;28;20052;-71
2022/09/25 06:32:55;;;;;;;2.03;0.90;;;9.20;99.90;;;;;;5000254;28;20518;-71
2022/09/25 06:35:21;;;;;;;4.32;1.40;;;9.30;99.90;;;;;;4999560;28;20485;-71
2022/09/25 06:37:47;;;;;;;4.18;1.27;;;9.40;99.90;;;;;;5004542;28;20044;-71
2022/09/25 06:40:12;;;;;;;2.65;1.60;;;9.50;99.90;;;;;;4993136;28;20038;-70
2022/09/25 06:42:38;;;;;;;5.50;1.40;;;9.70;99.90;;;;;;4998940;28;20062;-70
2022/09/25 06:45:04;;;;;;;3.22;1.50;;;9.90;99.90;;;;;;4998256;28;20119;-72
2022/09/25 06:47:29;;;;;;;13.48;2.80;;;10.00;99.90;;;;;;4998570;28;20038;-71
2022/09/25 06:49:55;;;;;;;5.35;1.60;;;10.20;99.90;;;;;;5008273;28;20030;-72
2022/09/25 06:52:20;;;;;;;4.85;1.70;;;10.30;99.90;;;;;;4999350;28;20057;-71
2022/09/25 06:54:46;;;;;;;3.20;1.33;;;10.50;99.90;;;;;;5001274;28;20497;-70
2022/09/25 06:57:11;;;;;;;2.42;1.33;;;10.60;99.90;;;;;;4992886;28;20390;-71
2022/09/25 06:59:37;;;;;;;3.45;1.95;;;10.80;99.90;;;;;;4997735;28;20117;-71
2022/09/25 07:04:50;;;;;;;4.63;1.20;;;11.10;99.90;;;;;;4996614;28;20122;-71
2022/09/25 07:07:19;;;;;;;5.07;1.70;;;11.30;99.90;;;;;;4983391;28;20057;-71
2022/09/25 07:09:47;;;;;;;3.03;1.40;;;11.40;99.90;;;;;;4995903;28;20030;-72
2022/09/25 07:12:13;;;;;;;6.07;1.77;;;11.60;99.90;;;;;;4998907;28;20080;-72
2022/09/25 07:14:40;;;;;;;3.05;0.98;;;11.70;99.90;;;;;;4991481;28;20042;-71
2022/09/25 07:17:06;;;;;;;2.70;0.90;;;11.90;99.90;;;;;;4999466;28;20061;-71
2022/09/25 07:19:32;;;;;;;3.90;0.98;;;11.90;99.90;;;;;;5000675;28;20040;-71
2022/09/25 07:21:58;;;;;;;4.70;0.95;;;12.00;99.90;;;;;;5003101;28;20037;-71
2022/09/25 07:24:24;;;;;;;6.10;1.00;;;11.90;99.90;;;;;;5003154;28;20061;-71
2022/09/25 07:26:51;;;;;;;1.05;0.63;;;12.00;99.90;;;;;;5002657;28;20065;-70
2022/09/25 07:29:17;;;;;;;9.98;2.25;;;12.00;99.90;;;;;;5003023;28;20041;-70
2022/09/25 07:31:43;;;;;;;3.83;1.05;;;12.10;99.90;;;;;;4995938;28;20022;-70
2022/09/25 07:34:11;;;;;;;4.35;0.95;;;12.10;99.90;;;;;;5024818;28;20034;-70
2022/09/25 07:36:37;;;;;;;3.70;1.30;;;12.20;99.90;;;;;;4991745;28;20046;-71
2022/09/25 07:39:03;;;;;;;4.70;1.20;;;12.20;99.90;;;;;;5001411;28;20068;-70
2022/09/25 07:41:29;;;;;;;2.60;0.93;;;12.30;99.90;;;;;;4998858;28;20037;-71
2022/09/25 07:43:56;;;;;;;4.82;0.80;;;12.30;99.90;;;;;;5021998;28;20398;-72
2022/09/25 07:46:23;;;;;;;6.68;1.08;;;12.40;99.90;;;;;;4999010;28;20873;-72
2022/09/25 07:48:49;;;;;;;4.78;1.02;;;12.50;99.90;;;;;;5005334;28;20525;-71
2022/09/25 07:51:16;;;;;;;1.58;0.77;;;12.60;99.90;;;;;;5004551;28;20037;-71
2022/09/25 07:53:42;;;;;;;2.03;0.50;;;12.70;99.90;;;;;;4973294;28;20034;-70
2022/09/25 07:56:09;;;;;;;3.63;0.60;;;12.90;99.90;;;;;;4977523;28;20359;-71
2022/09/25 07:58:35;;;;;;;3.42;0.85;;;13.00;99.90;;;;;;4982052;28;20034;-69
2022/09/25 08:01:02;;;;;;;3.70;0.77;;;13.10;99.90;;;;;;4978906;28;20046;-69
2022/09/25 08:03:28;;;;;;;2.78;0.80;;;13.40;99.90;;;;;;4978429;28;20039;-70
2022/09/25 08:06:02;;;;;;;2.45;0.63;;;13.60;99.90;;;;;;4979787;28;20096;-72
2022/09/25 08:08:28;;;;;;;3.95;0.63;;;13.70;99.90;;;;;;4977891;28;20058;-71
2022/09/25 08:11:03;;;;;;;4.13;0.65;;;13.80;99.90;;;;;;4979949;28;20046;-72
2022/09/25 08:13:31;;;;;;;4.57;0.80;;;13.90;99.90;;;;;;4979523;28;20137;-71
2022/09/25 08:15:57;;;;;;;1.58;0.30;;;13.90;99.90;;;;;;4979071;28;20045;-72
2022/09/25 08:18:22;;;;;;;2.40;0.55;;;14.00;99.90;;;;;;4977130;28;20553;-71
2022/09/25 08:20:48;;;;;;;3.65;0.30;;;14.10;99.90;;;;;;4980844;28;20037;-71
2022/09/25 08:23:13;;;;;;;2.50;0.70;;;14.10;99.90;;;;;;4980660;28;20034;-70
2022/09/25 08:25:39;;;;;;;5.63;0.45;;;14.20;99.90;;;;;;4967696;28;20038;-70
2022/09/25 08:28:05;;;;;;;3.45;0.50;;;14.30;99.90;;;;;;4990488;28;20038;-72
2022/09/25 08:30:30;;;;;;;2.50;0.35;;;14.30;99.90;;;;;;4996008;28;20579;-70
2022/09/25 08:32:56;;;;;;;5.53;0.73;;;14.30;99.90;;;;;;4996919;28;20049;-71
2022/09/25 08:35:22;;;;;;;2.85;0.50;;;14.40;99.90;;;;;;4997877;28;20062;-71
2022/09/25 08:37:47;;;;;;;7.72;0.82;;;14.40;99.90;;;;;;4990793;28;20034;-72
2022/09/25 08:40:18;;;;;;;1.95;0.40;;;14.40;99.90;;;;;;5001602;28;20038;-70
2022/09/25 08:42:47;;;;;;;9.45;0.75;;;14.50;99.90;;;;;;4998827;28;20679;-72
2022/09/25 08:49:02;;;;;;;2.33;0.40;;;14.60;99.90;;;;;;4991131;28;20734;-73
2022/09/25 08:51:30;;;;;;;1.70;0.28;;;14.70;99.90;;;;;;4990381;28;20039;-70
2022/09/25 08:53:57;;;;;;;5.22;0.65;;;14.70;99.90;;;;;;4994686;28;20041;-71
2022/09/25 08:56:26;;;;;;;5.13;1.05;;;14.70;99.90;;;;;;4995496;28;20375;-72
2022/09/25 08:59:00;;;;;;;8.95;0.85;;;14.70;99.90;;;;;;4991282;28;20137;-71
2022/09/25 09:01:35;;;;;;;3.00;0.50;;;14.80;99.90;;;;;;4997519;28;20332;-73
2022/09/25 09:04:11;;;;;;;0.85;0.22;;;14.90;99.90;;;;;;4999558;28;20124;-71
2022/09/25 09:06:39;;;;;;;1.85;0.30;;;14.90;99.90;;;;;;4998218;28;20041;-72
2022/09/25 09:09:16;;;;;;;3.35;0.50;;;15.00;99.90;;;;;;4995249;28;20034;-70
2022/09/25 09:12:06;;;;;;;3.05;0.40;;;15.00;99.90;;;;;;4989461;28;20498;-71
2022/09/25 09:14:39;;;;;;;3.15;0.68;;;15.00;99.90;;;;;;4997416;28;20034;-70
2022/09/25 09:17:16;;;;;;;2.22;0.43;;;15.00;99.90;;;;;;5010592;22;20207;-68
2022/09/25 09:19:46;;;;;;;8.45;0.65;;;15.10;99.90;;;;;;5004527;28;20022;-70
2022/09/25 09:22:17;;;;;;;1.40;0.20;;;15.20;99.90;;;;;;5015562;28;20540;-68
2022/09/25 09:25:08;;;;;;;6.13;0.55;;;15.20;99.90;;;;;;5011642;28;20510;-70
2022/09/25 09:28:03;;;;;;;1.02;0.25;;;15.30;99.90;;;;;;5014173;28;20144;-69
2022/09/25 09:30:56;;;;;;;3.92;0.20;;;15.30;99.90;;;;;;5012634;28;20524;-68
2022/09/25 09:34:02;;;;;;;7.72;0.75;;;15.40;99.90;;;;;;4991410;28;20048;-67
2022/09/25 09:36:35;;;;;;;2.95;0.30;;;15.40;99.90;;;;;;5012667;28;20038;-68
2022/09/25 09:39:21;;;;;;;3.42;0.38;;;15.40;99.90;;;;;;5012193;28;20457;-68
2022/09/25 09:42:06;;;;;;;6.97;0.57;;;15.30;99.90;;;;;;5009904;28;20049;-70
2022/09/25 09:44:57;;;;;;;0.68;0.20;;;15.20;99.90;;;;;;5007076;28;20041;-71
2022/09/25 09:47:54;;;;;;;3.45;0.30;;;15.00;99.90;;;;;;5009910;28;20378;-70
2022/09/25 09:50:39;;;;;;;0.88;0.28;;;15.00;99.90;;;;;;5011878;28;20545;-71
2022/09/25 09:53:12;;;;;;;2.22;0.60;;;15.20;99.90;;;;;;5011985;28;20132;-69
2022/09/25 09:55:44;;;;;;;1.98;0.40;;;15.20;99.90;;;;;;5007504;28;20465;-71
2022/09/25 09:58:24;;;;;;;2.20;0.15;;;15.30;99.90;;;;;;5007702;28;20258;-70
2022/09/25 10:00:50;;;;;;;2.00;0.75;;;15.40;99.90;;;;;;5013078;28;20045;-70
2022/09/25 10:03:30;;;;;;;1.65;0.30;;;15.50;99.90;;;;;;5010843;28;20112;-70
2022/09/25 10:06:11;;;;;;;6.55;0.25;;;15.70;99.90;;;;;;5017011;28;20103;-69
2022/09/25 10:08:37;;;;;;;2.92;0.28;;;15.80;99.90;;;;;;5013683;28;20049;-68
2022/09/25 10:11:16;;;;;;;6.70;0.30;;;15.80;99.90;;;;;;5019727;28;20041;-70
2022/09/25 10:13:43;;;;;;;1.88;0.30;;;15.80;99.90;;;;;;5012452;28;20048;-70
2022/09/25 10:16:10;;;;;;;5.47;0.20;;;15.70;99.90;;;;;;5018096;28;20075;-71
2022/09/25 10:19:03;;;;;;;4.93;0.75;;;15.80;99.90;;;;;;5016873;28;20038;-70
2022/09/25 10:21:46;;;;;;;1.40;0.20;;;15.90;99.90;;;;;;5016701;28;20052;-69
2022/09/25 10:24:54;;;;;;;0.70;0.15;;;16.10;99.90;;;;;;5013165;28;20121;-70
2022/09/25 10:27:28;;;;;;;1.60;0.20;;;16.30;99.90;;;;;;5016342;28;20037;-69
2022/09/25 10:30:21;;;;;;;2.30;0.15;;;16.60;99.90;;;;;;5015498;28;20104;-72
2022/09/25 10:33:00;;;;;;;0.73;0.60;;;16.60;99.90;;;;;;5011522;28;20034;-72
2022/09/25 10:35:37;;;;;;;5.50;0.17;;;16.60;99.90;;;;;;5015243;28;20033;-71
2022/09/25 10:38:05;;;;;;;2.67;0.15;;;16.50;99.90;;;;;;5011037;28;20050;-71
2022/09/25 10:40:35;;;;;;;0.40;0.05;;;16.40;99.90;;;;;;5019164;28;20456;-69
2022/09/25 10:43:16;;;;;;;1.02;0.10;;;16.20;99.90;;;;;;5015526;28;20038;-70
2022/09/25 10:45:42;;;;;;;;;;;16.00;99.90;;;;;;5013060;28;20041;-69
2022/09/25 10:51:26;;;;;;;0.40;0.20;;;15.90;99.90;;;;;;4991165;28;20061;-71
2022/09/25 10:54:10;;;;;;;1.13;0.20;;;15.90;99.90;;;;;;5016418;28;20041;-69
2022/09/25 10:56:37;;;;;;;2.88;0.40;;;16.00;99.90;;;;;;5013009;28;20038;-70
2022/09/25 10:59:18;;;;;;;1.75;0.10;;;16.00;99.90;;;;;;5019588;28;20034;-69
2022/09/25 11:01:46;;;;;;;1.98;0.20;;;15.90;99.90;;;;;;5015370;28;20045;-70
2022/09/25 11:04:27;;;;;;;1.88;0.28;;;15.90;99.90;;;;;;5017780;28;20171;-70
2022/09/25 11:06:57;;;;;;;0.65;0.05;;;15.80;99.90;;;;;;5018009;28;20030;-68
2022/09/25 11:09:25;;;;;;;0.77;0.20;;;15.90;99.90;;;;;;5017297;28;20118;-72
2022/09/25 11:11:53;;;;;;;2.50;0.50;;;16.00;99.90;;;;;;5017647;28;20041;-72
2022/09/25 11:14:31;;;;;;;0.68;0.10;;;16.10;99.90;;;;;;5017016;28;20293;-72
2022/09/25 11:16:58;;;;;;;6.28;0.60;;;16.20;99.90;;;;;;5015955;28;20414;-71
2022/09/25 11:19:36;;;;;;;4.07;0.77;;;16.00;99.90;;;;;;5018777;28;20045;-72
2022/09/25 11:22:12;;;;;;;1.52;0.15;;;16.10;99.90;;;;;;5010400;28;20068;-70
2022/09/25 11:25:19;;;;;;;0.95;0.10;;;16.00;99.90;;;;;;5013330;28;20137;-70
2022/09/25 11:27:53;;;;;;;1.25;0.17;;;16.10;99.90;;;;;;5007767;28;20042;-68
2022/09/25 11:30:20;;;;;;;4.13;0.52;;;16.00;99.90;;;;;;5016609;28;20029;-70
2022/09/25 11:32:51;;;;;;;2.22;0.70;;;16.10;99.90;;;;;;5017082;28;20172;-71
2022/09/25 11:35:38;;;;;;;1.75;0.13;;;15.90;99.90;;;;;;5016777;28;20436;-70
2022/09/25 11:41:10;;;;;;;2.38;0.20;;;16.00;99.90;;;;;;5008083;28;20045;-68
2022/09/25 11:41:13;;;;;;;0.75;0.10;;;15.80;99.90;;;;;;5005043;28;20045;-69
2022/09/25 11:43:50;;;;;;;0.77;0.20;;;15.70;99.90;;;;;;5014949;28;20042;-71
2022/09/25 11:46:38;;;;;;;0.73;0.10;;;15.70;99.90;;;;;;5015836;28;20065;-69
2022/09/25 11:49:14;;;;;;;0.90;0.08;;;15.80;99.90;;;;;;5010805;28;20080;-68
2022/09/25 11:52:05;;;;;;;0.52;0.10;;;15.80;99.90;;;;;;5016673;28;20041;-69
2022/09/25 11:54:55;;;;;;;1.40;0.13;;;16.00;99.90;;;;;;5010635;28;20120;-70
2022/09/25 11:57:50;;;;;;;3.28;0.20;;;16.10;99.90;;;;;;5015583;28;20050;-70
2022/09/25 12:00:39;;;;;;;1.35;0.10;;;16.30;99.90;;;;;;5009227;28;20034;-69
2022/09/25 12:03:08;;;;;;;0.10;0.08;;;16.50;99.90;;;;;;5011177;28;20124;-70
2022/09/25 12:05:48;;;;;;;0.10;0.00;;;16.50;99.90;;;;;;5016797;28;20033;-70
2022/09/25 12:08:14;;;;;;;;;;;16.50;99.90;;;;;;5015678;28;20048;-71
2022/09/25 12:10:45;;;;;;;0.47;0.00;;;16.50;99.90;;;;;;5016089;28;19917;-70
2022/09/25 12:13:40;;;;;;;6.95;0.20;;;16.50;99.90;;;;;;5013063;28;20081;-70
2022/09/25 12:16:17;;;;;;;0.52;0.05;;;16.50;99.90;;;;;;5010972;28;20371;-68
2022/09/25 12:19:01;;;;;;;1.13;0.00;;;16.50;99.90;;;;;;5011752;28;20072;-71
2022/09/25 12:21:37;;;;;;;2.70;0.10;;;16.50;99.90;;;;;;5009470;28;20336;-70
2022/09/25 12:24:30;;;;;;;0.40;0.10;;;16.60;99.90;;;;;;5000593;28;20069;-68
2022/09/25 12:27:18;;;;;;;1.13;0.10;;;16.60;99.90;;;;;;5000066;28;20038;-71
2022/09/25 12:29:59;;;;;;;2.03;0.10;;;16.50;99.90;;;;;;5003374;28;20045;-70
2022/09/25 12:32:46;;;;;;;0.52;0.10;;;16.50;99.90;;;;;;5001611;28;20044;-69
2022/09/25 12:35:20;;;;;;;7.07;1.00;;;16.50;99.90;;;;;;5002193;28;20038;-71
2022/09/25 12:37:52;;;;;;;0.38;0.10;;;16.50;99.90;;;;;;5006909;28;20042;-72
2022/09/25 12:40:26;;;;;;;1.00;0.15;;;16.50;99.90;;;;;;5002518;28;20040;-72
2022/09/25 12:43:23;;;;;;;2.15;0.90;;;16.60;99.90;;;;;;5003464;28;20029;-72
2022/09/25 12:46:01;;;;;;;4.07;0.25;;;16.40;99.90;;;;;;5007176;28;20034;-68
2022/09/25 12:48:38;;;;;;;2.97;0.22;;;16.20;99.90;;;;;;5006128;28;20270;-68
2022/09/25 12:51:23;;;;;;;1.48;0.10;;;16.20;99.90;;;;;;5003109;28;20175;-71
2022/09/25 12:53:57;;;;;;;2.20;0.20;;;16.00;99.90;;;;;;5006459;28;20598;-71
2022/09/25 12:56:32;;;;;;;0.65;0.10;;;15.90;99.90;;;;;;5004650;28;20030;-71
2022/09/25 12:59:16;;;;;;;2.35;0.28;;;15.80;99.90;;;;;;5002866;28;20081;-70
2022/09/25 13:01:45;;;;;;;0.65;0.00;;;15.70;99.90;;;;;;5003487;28;20041;-71
2022/09/25 13:04:42;;;;;;;2.45;0.10;;;15.70;99.90;;;;;;5001067;28;20086;-71
2022/09/25 13:07:31;;;;;;;2.35;0.10;;;15.70;99.90;;;;;;5006906;28;20149;-69
2022/09/25 13:09:58;;;;;;;1.65;0.32;;;15.60;99.90;;;;;;5000893;28;20141;-71
2022/09/25 13:12:34;;;;;;;3.10;0.30;;;15.60;99.90;;;;;;5007909;28;20030;-71
2022/09/25 13:15:25;;;;;;;4.10;0.20;;;15.50;99.90;;;;;;5003046;28;20344;-72
2022/09/25 13:17:51;;;;;;;1.05;0.08;;;15.30;99.90;;;;;;5006148;28;20041;-71
2022/09/25 13:20:25;;;;;;;1.17;0.20;;;15.20;99.90;;;;;;5002808;28;20033;-72
2022/09/25 13:22:56;;;;;;;0.40;0.08;;;15.10;99.90;;;;;;5003241;28;20419;-69
2022/09/25 13:25:22;;;;;;;0.10;0.10;;;15.00;99.90;;;;;;5003300;28;20049;-70
2022/09/25 13:27:50;;;;;;;0.50;0.10;;;15.00;99.90;;;;;;5003448;28;20033;-70
2022/09/25 13:30:27;;;;;;;0.98;0.32;;;15.00;99.90;;;;;;5003234;28;20069;-70
2022/09/25 13:33:02;;;;;;;0.63;0.05;;;14.90;99.90;;;;;;5004474;28;20034;-71
2022/09/25 13:35:31;;;;;;;1.13;0.00;;;14.80;99.90;;;;;;5002392;28;20502;-69
2022/09/25 13:40:41;;;;;;;0.70;0.20;;;14.80;99.90;;;;;;5003077;28;20041;-70